createdAt,value
2023-05-10T00:00:29.740Z,13.35
2023-05-10T00:02:57.604Z,13.32
2023-05-10T00:05:25.230Z,13.37
2023-05-10T00:07:53.156Z,13.45
2023-05-10T00:10:20.915Z,13.42
2023-05-10T00:12:48.671Z,13.32
2023-05-10T00:15:17.431Z,13.33
2023-05-10T00:17:45.216Z,13.34
2023-05-10T00:20:13.172Z,13.09
2023-05-10T00:22:41.143Z,13.13
2023-05-10T00:25:10.343Z,13.10
2023-05-10T00:27:38.021Z,12.99
2023-05-10T00:30:05.453Z,13.04
2023-05-10T00:32:33.620Z,12.99
2023-05-10T00:35:01.277Z,12.99
2023-05-10T00:37:30.154Z,13.04
2023-05-10T00:39:57.863Z,13.05
2023-05-10T00:42:25.546Z,13.05
2023-05-10T00:44:52.476Z,13.05
2023-05-10T00:47:19.429Z,12.85
2023-05-10T00:49:47.239Z,12.84
2023-05-10T00:52:15.330Z,12.85
2023-05-10T00:54:44.937Z,12.82
2023-05-10T00:57:13.040Z,12.80
2023-05-10T00:59:40.911Z,12.71
2023-05-10T01:02:09.818Z,12.68
2023-05-10T01:04:39.352Z,12.58
2023-05-10T01:07:06.505Z,12.47
2023-05-10T01:09:34.644Z,12.35
2023-05-10T01:12:02.997Z,12.41
2023-05-10T01:14:30.491Z,12.36
2023-05-10T01:17:01.842Z,12.37
2023-05-10T01:19:32.313Z,12.38
2023-05-10T01:21:59.866Z,12.28
2023-05-10T01:25:12.631Z,12.22
2023-05-10T01:27:48.609Z,12.23
2023-05-10T01:30:47.459Z,12.27
2023-05-10T01:33:33.131Z,12.03
2023-05-10T01:36:09.976Z,11.76
2023-05-10T01:38:52.981Z,11.68
2023-05-10T01:41:32.364Z,11.60
2023-05-10T01:44:18.808Z,11.23
2023-05-10T01:47:03.211Z,11.25
2023-05-10T01:49:35.974Z,11.29
2023-05-10T01:52:11.461Z,11.27
2023-05-10T01:54:44.342Z,11.28
2023-05-10T01:57:15.270Z,11.20
2023-05-10T01:59:46.583Z,11.22
2023-05-10T02:02:16.472Z,11.22
2023-05-10T02:04:46.160Z,11.27
2023-05-10T02:07:15.781Z,11.26
2023-05-10T02:09:49.658Z,11.32
2023-05-10T02:12:18.920Z,11.21
2023-05-10T02:14:46.696Z,11.29
2023-05-10T02:17:15.567Z,11.14
2023-05-10T02:19:44.365Z,11.14
2023-05-10T02:22:13.847Z,11.08
2023-05-10T02:24:42.377Z,11.16
2023-05-10T02:27:12.429Z,11.17
2023-05-10T02:29:40.686Z,11.03
2023-05-10T02:32:12.128Z,11.02
2023-05-10T02:34:42.410Z,10.99
2023-05-10T02:37:14.717Z,10.77
2023-05-10T02:39:46.654Z,10.76
2023-05-10T02:42:18.892Z,10.82
2023-05-10T02:44:53.999Z,10.70
2023-05-10T02:47:22.787Z,10.68
2023-05-10T02:49:50.899Z,10.68
2023-05-10T02:52:24.373Z,10.57
2023-05-10T02:54:56.592Z,10.57
2023-05-10T02:57:29.836Z,10.60
2023-05-10T02:59:57.739Z,10.58
2023-05-10T03:02:25.488Z,10.55
2023-05-10T03:04:53.367Z,10.40
2023-05-10T03:07:22.438Z,10.25
2023-05-10T03:09:50.927Z,10.30
2023-05-10T03:12:37.137Z,10.21
2023-05-10T03:15:22.009Z,10.22
2023-05-10T03:17:52.951Z,10.11
2023-05-10T03:20:44.755Z,10.05
2023-05-10T03:23:35.217Z,10.12
2023-05-10T03:26:03.357Z,10.06
2023-05-10T03:28:32.814Z,10.00
2023-05-10T03:31:01.174Z,10.20
2023-05-10T03:33:28.964Z,10.31
2023-05-10T03:35:56.715Z,10.36
2023-05-10T03:38:24.370Z,10.39
2023-05-10T03:40:52.050Z,10.46
2023-05-10T03:43:19.782Z,10.17
2023-05-10T03:45:47.984Z,10.29
2023-05-10T03:48:14.949Z,10.44
2023-05-10T03:50:42.731Z,10.63
2023-05-10T03:53:10.361Z,10.77
2023-05-10T03:55:39.142Z,10.91
2023-05-10T03:58:08.005Z,10.91
2023-05-10T04:00:34.845Z,10.77
2023-05-10T04:03:04.616Z,10.53
2023-05-10T04:05:32.557Z,10.46
2023-05-10T04:08:02.228Z,10.56
2023-05-10T04:10:32.058Z,10.75
2023-05-10T04:12:59.850Z,10.76
2023-05-10T04:15:27.756Z,10.85
2023-05-10T04:17:55.604Z,10.84
2023-05-10T04:20:25.717Z,10.84
2023-05-10T04:22:53.390Z,10.95
2023-05-10T04:25:20.607Z,10.93
2023-05-10T04:27:48.378Z,10.87
2023-05-10T04:30:15.791Z,10.87
2023-05-10T04:32:43.752Z,10.94
2023-05-10T04:35:12.024Z,11.00
2023-05-10T04:37:39.814Z,10.93
2023-05-10T04:40:07.436Z,11.01
2023-05-10T04:42:35.287Z,11.02
2023-05-10T04:45:03.435Z,10.95
2023-05-10T04:47:31.238Z,11.06
2023-05-10T04:49:59.639Z,10.81
2023-05-10T04:52:27.631Z,10.97
2023-05-10T04:54:55.569Z,11.07
2023-05-10T04:57:25.301Z,11.18
2023-05-10T04:59:54.748Z,11.12
2023-05-10T05:02:22.873Z,11.09
2023-05-10T05:04:50.736Z,10.79
2023-05-10T05:07:18.400Z,10.95
2023-05-10T05:09:48.020Z,11.15
2023-05-10T05:12:15.812Z,11.06
2023-05-10T05:14:44.241Z,11.05
2023-05-10T05:17:12.180Z,11.12
2023-05-10T05:19:40.085Z,11.19
2023-05-10T05:22:09.380Z,11.32
2023-05-10T05:24:40.450Z,11.41
2023-05-10T05:27:08.308Z,11.59
2023-05-10T05:29:35.170Z,11.68
2023-05-10T05:32:03.315Z,11.89
2023-05-10T05:34:31.141Z,11.90
2023-05-10T05:36:58.855Z,11.95
2023-05-10T05:39:25.890Z,12.04
2023-05-10T05:41:53.600Z,12.20
2023-05-10T05:44:20.580Z,12.34
2023-05-10T05:46:48.394Z,12.25
2023-05-10T05:49:16.179Z,12.51
2023-05-10T05:51:43.212Z,12.44
2023-05-10T05:54:11.112Z,12.50
2023-05-10T05:56:38.989Z,12.47
2023-05-10T05:59:05.936Z,12.75
2023-05-10T06:01:33.698Z,12.92
2023-05-10T06:04:00.747Z,13.17
2023-05-10T06:06:28.967Z,13.25
2023-05-10T06:08:56.749Z,13.20
2023-05-10T06:11:24.983Z,13.22
2023-05-10T06:13:52.045Z,13.28
2023-05-10T06:16:19.870Z,13.20
2023-05-10T06:18:48.564Z,13.15
2023-05-10T06:21:17.310Z,13.29
2023-05-10T06:23:45.085Z,13.34
2023-05-10T06:26:12.113Z,13.33
2023-05-10T06:28:40.245Z,13.31
2023-05-10T06:31:08.357Z,13.39
2023-05-10T06:33:35.257Z,13.41
2023-05-10T06:36:05.113Z,13.50
2023-05-10T06:38:32.073Z,13.57
2023-05-10T06:40:59.717Z,13.69
2023-05-10T06:43:27.611Z,13.85
2023-05-10T06:45:56.335Z,13.94
2023-05-10T06:48:25.133Z,14.08
2023-05-10T06:50:53.034Z,13.97
2023-05-10T06:53:20.730Z,13.98
2023-05-10T06:55:50.950Z,13.97
2023-05-10T06:58:17.849Z,14.06
2023-05-10T07:00:46.546Z,14.22
2023-05-10T07:03:14.296Z,14.16
2023-05-10T07:05:42.182Z,14.23
2023-05-10T07:08:09.538Z,14.34
2023-05-10T07:10:37.340Z,14.45
2023-05-10T07:13:05.081Z,14.50
2023-05-10T07:15:34.726Z,14.44
2023-05-10T07:18:01.669Z,14.81
2023-05-10T07:20:30.552Z,14.93
2023-05-10T07:23:00.072Z,14.71
2023-05-10T07:25:27.730Z,14.56
2023-05-10T07:27:55.352Z,14.68
2023-05-10T07:30:24.716Z,14.97
2023-05-10T07:32:52.582Z,15.11
2023-05-10T07:35:20.309Z,15.29
2023-05-10T07:37:48.063Z,15.37
2023-05-10T07:40:16.916Z,15.31
2023-05-10T07:42:45.724Z,15.42
2023-05-10T07:45:13.358Z,15.57
2023-05-10T07:47:40.969Z,15.63
2023-05-10T07:50:08.784Z,15.80
2023-05-10T07:52:37.712Z,15.86
2023-05-10T07:55:05.837Z,16.09
2023-05-10T07:57:33.470Z,16.24
2023-05-10T08:00:01.404Z,16.30
2023-05-10T08:02:29.071Z,16.46
2023-05-10T08:04:58.400Z,16.45
2023-05-10T08:07:26.264Z,16.27
2023-05-10T08:09:54.078Z,16.38
2023-05-10T08:12:21.004Z,16.15
2023-05-10T08:14:49.802Z,16.40
2023-05-10T08:17:19.338Z,16.44
2023-05-10T08:19:48.888Z,16.14
2023-05-10T08:22:17.650Z,16.22
2023-05-10T08:24:45.400Z,16.15
2023-05-10T08:27:14.896Z,16.22
2023-05-10T08:29:50.137Z,16.39
2023-05-10T08:32:19.023Z,16.51
2023-05-10T08:34:45.992Z,16.65
2023-05-10T08:37:14.496Z,16.63
2023-05-10T08:39:42.901Z,16.72
2023-05-10T08:42:13.737Z,17.04
2023-05-10T08:44:43.631Z,17.03
2023-05-10T08:47:12.672Z,17.14
2023-05-10T08:49:40.674Z,17.25
2023-05-10T08:52:12.631Z,17.18
2023-05-10T08:54:40.505Z,17.22
2023-05-10T08:57:08.010Z,17.26
2023-05-10T08:59:35.852Z,16.96
2023-05-10T09:02:07.273Z,17.15
2023-05-10T09:04:36.437Z,17.45
2023-05-10T09:07:04.195Z,17.67
2023-05-10T09:09:32.817Z,17.62
2023-05-10T09:11:59.849Z,17.51
2023-05-10T09:14:28.249Z,17.72
2023-05-10T09:16:57.717Z,17.92
2023-05-10T09:19:25.589Z,17.76
2023-05-10T09:21:52.489Z,18.07
2023-05-10T09:24:20.179Z,18.31
2023-05-10T09:26:49.586Z,18.70
2023-05-10T09:29:17.843Z,18.93
2023-05-10T09:31:55.937Z,18.52
2023-05-10T09:34:31.655Z,18.57
2023-05-10T09:37:05.615Z,18.35
2023-05-10T09:39:35.071Z,18.32
2023-05-10T09:42:10.060Z,18.77
2023-05-10T09:44:39.165Z,18.55
2023-05-10T09:47:08.033Z,18.72
2023-05-10T09:49:36.288Z,18.30
2023-05-10T09:52:07.954Z,18.18
2023-05-10T09:54:35.652Z,18.39
2023-05-10T09:57:02.915Z,18.06
2023-05-10T09:59:31.472Z,18.27
2023-05-10T10:02:01.859Z,18.74
2023-05-10T10:04:31.907Z,18.82
2023-05-10T10:07:05.382Z,18.70
2023-05-10T10:09:35.942Z,18.65
2023-05-10T10:12:05.794Z,18.34
2023-05-10T10:14:32.930Z,18.24
2023-05-10T10:19:35.352Z,18.60
2023-05-10T10:22:02.299Z,18.66
2023-05-10T10:24:31.224Z,18.77
2023-05-10T10:27:10.371Z,18.89
2023-05-10T10:30:14.346Z,18.55
2023-05-10T10:33:28.319Z,18.75
2023-05-10T10:35:59.178Z,18.92
2023-05-10T10:38:26.905Z,19.01
2023-05-10T10:41:27.648Z,19.39
2023-05-10T10:44:27.920Z,19.37
2023-05-10T10:47:34.739Z,19.50
2023-05-10T10:50:01.773Z,20.05
2023-05-10T10:52:36.068Z,20.60
2023-05-10T10:55:10.328Z,20.46
2023-05-10T10:58:01.656Z,20.81
2023-05-10T11:00:38.021Z,20.72
2023-05-10T11:03:09.699Z,20.57
2023-05-10T11:05:50.593Z,20.31
2023-05-10T11:08:32.783Z,20.73
2023-05-10T11:11:04.615Z,21.36
2023-05-10T11:13:35.254Z,21.36
2023-05-10T11:16:19.284Z,21.74
2023-05-10T11:18:58.975Z,21.41
2023-05-10T11:21:27.837Z,21.49
2023-05-10T11:23:59.170Z,21.10
2023-05-10T11:26:32.537Z,20.50
2023-05-10T11:29:02.965Z,20.76
2023-05-10T11:31:32.015Z,20.56
2023-05-10T11:34:02.843Z,20.77
2023-05-10T11:36:35.654Z,20.76
2023-05-10T11:39:04.819Z,20.82
2023-05-10T11:41:33.059Z,21.01
2023-05-10T11:44:00.828Z,21.51
2023-05-10T11:46:29.699Z,21.29
2023-05-10T11:49:03.163Z,21.07
2023-05-10T11:51:34.279Z,21.36
2023-05-10T11:54:10.532Z,21.91
2023-05-10T11:56:40.737Z,22.17
2023-05-10T11:59:27.076Z,21.83
2023-05-10T12:01:54.803Z,21.62
2023-05-10T12:04:22.766Z,21.68
2023-05-10T12:06:50.461Z,21.62
2023-05-10T12:09:23.059Z,22.17
2023-05-10T12:12:00.609Z,22.16
2023-05-10T12:14:34.349Z,21.29
2023-05-10T12:17:01.949Z,21.49
2023-05-10T12:19:38.797Z,21.52
2023-05-10T12:22:07.259Z,21.32
2023-05-10T12:24:36.514Z,21.26
2023-05-10T12:27:09.380Z,20.90
2023-05-10T12:29:37.734Z,21.15
2023-05-10T12:32:05.335Z,20.89
2023-05-10T12:34:34.089Z,21.45
2023-05-10T12:37:03.808Z,21.51
2023-05-10T12:39:42.464Z,21.10
2023-05-10T12:42:10.606Z,20.99
2023-05-10T12:44:38.151Z,21.65
2023-05-10T12:47:05.629Z,22.26
2023-05-10T12:49:35.216Z,22.76
2023-05-10T12:52:04.116Z,22.90
2023-05-10T12:54:32.769Z,23.05
2023-05-10T12:57:01.649Z,23.52
2023-05-10T12:59:29.071Z,23.21
2023-05-10T13:01:58.821Z,23.35
2023-05-10T13:04:27.461Z,23.40
2023-05-10T13:06:59.562Z,23.64
2023-05-10T13:09:31.847Z,23.76
2023-05-10T13:12:00.587Z,23.59
2023-05-10T13:14:29.168Z,23.35
2023-05-10T13:16:57.924Z,22.44
2023-05-10T13:19:27.343Z,22.28
2023-05-10T13:21:54.965Z,21.48
2023-05-10T13:24:23.514Z,22.38
2023-05-10T13:26:50.916Z,22.53
2023-05-10T13:29:19.272Z,23.14
2023-05-10T13:31:47.829Z,22.93
2023-05-10T13:34:16.558Z,23.11
2023-05-10T13:36:44.034Z,23.00
2023-05-10T13:39:11.580Z,22.58
2023-05-10T13:41:39.191Z,22.53
2023-05-10T13:44:06.787Z,22.00
2023-05-10T13:46:34.342Z,22.14
2023-05-10T13:49:03.196Z,22.98
2023-05-10T13:51:32.840Z,23.04
2023-05-10T13:54:01.448Z,23.56
2023-05-10T13:56:29.015Z,24.27
2023-05-10T13:58:59.607Z,24.37
2023-05-10T14:01:28.560Z,24.36
2023-05-10T14:03:56.275Z,24.34
2023-05-10T14:06:23.864Z,24.32
2023-05-10T14:08:51.298Z,24.09
2023-05-10T14:11:18.770Z,24.00
2023-05-10T14:13:47.412Z,23.69
2023-05-10T14:16:16.199Z,23.61
2023-05-10T14:18:43.845Z,24.11
2023-05-10T14:21:11.392Z,24.55
2023-05-10T14:23:40.497Z,23.86
2023-05-10T14:26:08.180Z,24.12
2023-05-10T14:28:36.900Z,24.58
2023-05-10T14:31:04.602Z,24.96
2023-05-10T14:33:31.989Z,24.80
2023-05-10T14:36:01.022Z,25.10
2023-05-10T14:38:30.043Z,25.39
2023-05-10T14:40:57.496Z,25.74
2023-05-10T14:43:26.201Z,25.46
2023-05-10T14:45:53.732Z,25.41
2023-05-10T14:48:22.430Z,25.31
2023-05-10T14:50:51.379Z,25.53
2023-05-10T14:53:19.979Z,25.12
2023-05-10T14:55:48.668Z,24.66
2023-05-10T14:58:17.677Z,24.75
2023-05-10T15:00:47.352Z,24.67
2023-05-10T15:03:15.465Z,24.38
2023-05-10T15:05:43.579Z,24.03
2023-05-10T15:08:11.807Z,24.18
2023-05-10T15:10:41.012Z,24.74
2023-05-10T15:13:09.933Z,23.90
2023-05-10T15:15:39.092Z,23.91
2023-05-10T15:18:07.793Z,24.14
2023-05-10T15:20:36.090Z,24.09
2023-05-10T15:23:05.132Z,24.39
2023-05-10T15:25:35.954Z,23.69
2023-05-10T15:28:04.166Z,24.08
2023-05-10T15:30:31.771Z,24.04
2023-05-10T15:33:00.627Z,24.29
2023-05-10T15:35:29.351Z,24.10
2023-05-10T15:37:57.920Z,23.75
2023-05-10T15:40:26.612Z,23.04
2023-05-10T15:42:53.993Z,22.61
2023-05-10T15:45:21.760Z,22.91
2023-05-10T15:47:49.386Z,22.42
2023-05-10T15:50:17.445Z,22.32
2023-05-10T15:52:46.092Z,22.28
2023-05-10T15:55:13.702Z,22.28
2023-05-10T15:57:42.879Z,21.91
2023-05-10T16:00:12.249Z,21.85
2023-05-10T16:02:41.145Z,22.59
2023-05-10T16:05:09.858Z,22.99
2023-05-10T16:07:37.591Z,23.31
2023-05-10T16:10:06.776Z,23.29
2023-05-10T16:12:34.430Z,23.18
2023-05-10T16:15:02.006Z,23.11
2023-05-10T16:17:29.553Z,23.30
2023-05-10T16:19:58.131Z,23.00
2023-05-10T16:22:28.906Z,22.90
2023-05-10T16:24:58.116Z,22.86
2023-05-10T16:27:28.695Z,22.55
2023-05-10T16:29:57.491Z,21.97
2023-05-10T16:32:25.270Z,21.86
2023-05-10T16:34:53.541Z,21.62
2023-05-10T16:37:22.203Z,21.79
2023-05-10T16:39:49.698Z,21.54
2023-05-10T16:42:17.687Z,21.42
2023-05-10T16:44:45.139Z,21.22
2023-05-10T16:47:12.736Z,21.52
2023-05-10T16:49:40.348Z,20.85
2023-05-10T16:52:07.813Z,21.05
2023-05-10T16:54:36.499Z,21.30
2023-05-10T16:57:04.145Z,20.98
2023-05-10T16:59:31.758Z,20.94
2023-05-10T17:01:59.196Z,21.10
2023-05-10T17:04:27.091Z,21.00
2023-05-10T17:06:54.608Z,20.74
2023-05-10T17:09:22.101Z,20.82
2023-05-10T17:11:49.553Z,20.97
2023-05-10T17:14:17.123Z,20.86
2023-05-10T17:16:44.673Z,21.19
2023-05-10T17:19:12.218Z,21.42
2023-05-10T17:21:40.019Z,21.39
2023-05-10T17:24:07.668Z,21.28
2023-05-10T17:26:35.079Z,20.86
2023-05-10T17:29:05.554Z,21.20
2023-05-10T17:31:33.332Z,21.16
2023-05-10T17:34:01.808Z,21.23
2023-05-10T17:36:31.092Z,21.21
2023-05-10T17:38:59.780Z,21.15
2023-05-10T17:41:29.020Z,20.66
2023-05-10T17:43:57.604Z,20.60
2023-05-10T17:46:24.634Z,20.10
2023-05-10T17:48:53.510Z,20.28
2023-05-10T17:51:22.158Z,20.06
2023-05-10T17:53:49.893Z,19.96
2023-05-10T17:56:18.543Z,19.99
2023-05-10T17:58:45.508Z,19.97
2023-05-10T18:01:18.468Z,20.01
2023-05-10T18:03:46.426Z,20.10
2023-05-10T18:06:13.851Z,20.16
2023-05-10T18:08:42.691Z,19.95
2023-05-10T18:11:09.808Z,19.92
2023-05-10T18:13:36.729Z,19.57
2023-05-10T18:16:06.178Z,19.44
2023-05-10T18:18:33.149Z,19.40
2023-05-10T18:20:59.973Z,19.25
2023-05-10T18:23:27.058Z,19.30
2023-05-10T18:25:55.678Z,19.32
2023-05-10T18:28:24.698Z,19.26
2023-05-10T18:30:52.398Z,19.11
2023-05-10T18:33:19.382Z,19.07
2023-05-10T18:35:46.677Z,19.21
2023-05-10T18:38:13.936Z,18.91
2023-05-10T18:43:50.169Z,18.78
2023-05-10T18:46:18.926Z,18.85
2023-05-10T18:48:49.315Z,18.62
2023-05-10T18:51:24.632Z,18.39
2023-05-10T18:53:51.808Z,18.37
2023-05-10T18:56:18.930Z,18.36
2023-05-10T18:58:46.435Z,18.45
2023-05-10T19:01:13.435Z,18.40
2023-05-10T19:03:40.371Z,18.20
2023-05-10T19:06:07.544Z,18.18
2023-05-10T19:08:34.512Z,18.11
2023-05-10T19:11:01.765Z,17.99
2023-05-10T19:13:29.338Z,17.84
2023-05-10T19:16:06.725Z,17.87
2023-05-10T19:18:34.428Z,17.96
2023-05-10T19:21:06.033Z,17.75
2023-05-10T19:23:34.053Z,17.81
2023-05-10T19:26:02.351Z,17.38
2023-05-10T19:28:31.984Z,17.52
2023-05-10T19:30:59.139Z,17.51
2023-05-10T19:33:28.485Z,17.32
2023-05-10T19:35:56.109Z,17.28
2023-05-10T19:38:24.536Z,17.23
2023-05-10T19:41:00.837Z,17.21
2023-05-10T19:43:31.442Z,17.22
2023-05-10T19:46:02.036Z,17.25
2023-05-10T19:48:31.769Z,17.14
2023-05-10T19:51:04.567Z,17.15
2023-05-10T19:53:33.187Z,16.90
2023-05-10T19:56:07.288Z,16.83
2023-05-10T19:58:35.153Z,16.82
2023-05-10T20:01:02.739Z,16.45
2023-05-10T20:03:29.990Z,16.71
2023-05-10T20:05:57.202Z,16.65
2023-05-10T20:08:26.188Z,16.44
2023-05-10T20:10:53.475Z,16.42
2023-05-10T20:13:20.561Z,16.48
2023-05-10T20:15:48.436Z,16.50
2023-05-10T20:18:18.407Z,16.37
2023-05-10T20:20:47.404Z,15.96
2023-05-10T20:23:15.469Z,16.03
2023-05-10T20:25:45.209Z,15.85
2023-05-10T20:28:13.469Z,16.05
2023-05-10T20:30:41.333Z,16.18
2023-05-10T20:33:11.190Z,16.36
2023-05-10T20:35:40.377Z,16.26
2023-05-10T20:38:08.273Z,16.33
2023-05-10T20:40:37.705Z,16.36
2023-05-10T20:43:07.705Z,15.96
2023-05-10T20:45:36.882Z,15.99
2023-05-10T20:48:07.115Z,15.91
2023-05-10T20:50:38.000Z,15.77
2023-05-10T20:53:05.305Z,15.79
2023-05-10T20:55:32.379Z,15.82
2023-05-10T20:57:59.262Z,15.64
2023-05-10T21:00:26.208Z,15.57
2023-05-10T21:02:55.300Z,15.30
2023-05-10T21:05:22.370Z,15.34
2023-05-10T21:07:54.249Z,15.35
2023-05-10T21:10:21.852Z,15.60
2023-05-10T21:12:48.657Z,15.60
2023-05-10T21:15:15.704Z,15.48
2023-05-10T21:17:46.234Z,15.33
2023-05-10T21:20:14.564Z,15.24
2023-05-10T21:22:41.546Z,15.14
2023-05-10T21:25:08.928Z,14.90
2023-05-10T21:27:37.645Z,14.88
2023-05-10T21:30:04.974Z,14.95
2023-05-10T21:32:41.400Z,14.96
2023-05-10T21:35:10.322Z,14.79
2023-05-10T21:37:37.224Z,14.83
2023-05-10T21:40:04.970Z,14.91
2023-05-10T21:42:35.017Z,14.70
2023-05-10T21:45:01.888Z,14.94
2023-05-10T21:47:28.798Z,14.89
2023-05-10T21:49:55.606Z,14.83
2023-05-10T21:52:22.429Z,14.90
2023-05-10T21:54:53.001Z,14.93
2023-05-10T21:57:21.524Z,15.01
2023-05-10T21:59:48.226Z,14.84
2023-05-10T22:02:15.376Z,14.81
2023-05-10T22:04:42.133Z,15.00
2023-05-10T22:07:10.929Z,14.96
2023-05-10T22:09:38.147Z,14.81
2023-05-10T22:12:05.315Z,14.78
2023-05-10T22:14:32.126Z,14.72
2023-05-10T22:16:59.128Z,14.69
2023-05-10T22:19:26.109Z,14.53
2023-05-10T22:21:53.490Z,14.60
2023-05-10T22:24:20.265Z,14.68
2023-05-10T22:26:47.350Z,14.70
2023-05-10T22:29:14.154Z,14.66
2023-05-10T22:31:41.818Z,14.57
2023-05-10T22:34:08.712Z,14.52
2023-05-10T22:36:35.562Z,14.51
2023-05-10T22:39:02.467Z,14.59
2023-05-10T22:41:30.203Z,14.61
2023-05-10T22:43:58.963Z,14.44
2023-05-10T22:46:25.900Z,14.64
2023-05-10T22:48:53.329Z,14.41
2023-05-10T22:51:20.341Z,14.36
2023-05-10T22:53:47.264Z,14.23
2023-05-10T22:56:14.241Z,14.21
2023-05-10T22:58:41.159Z,14.09
2023-05-10T23:01:08.517Z,14.21
2023-05-10T23:03:36.088Z,14.21
2023-05-10T23:06:02.894Z,14.29
2023-05-10T23:08:29.785Z,14.12
2023-05-10T23:10:56.960Z,14.06
2023-05-10T23:13:24.716Z,14.18
2023-05-10T23:15:53.703Z,14.12
2023-05-10T23:18:21.022Z,14.00
2023-05-10T23:20:48.647Z,13.91
2023-05-10T23:23:15.807Z,14.04
2023-05-10T23:25:42.767Z,14.11
2023-05-10T23:28:11.657Z,14.01
2023-05-10T23:30:41.678Z,13.75
2023-05-10T23:33:08.704Z,13.81
2023-05-10T23:35:35.771Z,13.69
2023-05-10T23:38:03.315Z,13.32
2023-05-10T23:40:30.124Z,13.46
2023-05-10T23:42:57.102Z,13.54
2023-05-10T23:45:26.097Z,12.94
2023-05-10T23:47:53.175Z,12.96
2023-05-10T23:50:20.030Z,13.22
2023-05-10T23:52:47.203Z,13.37
2023-05-10T23:55:14.157Z,13.46
2023-05-10T23:57:41.060Z,13.29
